createdAt,value
2022-08-10T00:01:34.430Z,101342.00
2022-08-10T00:04:02.466Z,101342.81
2022-08-10T00:06:29.978Z,101348.16
2022-08-10T00:08:57.414Z,101354.31
2022-08-10T00:11:26.413Z,101345.19
2022-08-10T00:13:53.717Z,101351.34
2022-08-10T00:16:20.749Z,101354.19
2022-08-10T00:18:47.855Z,101352.09
2022-08-10T00:21:15.429Z,101351.25
2022-08-10T00:23:42.466Z,101350.28
2022-08-10T00:26:09.580Z,101332.47
2022-08-10T00:28:39.006Z,101341.44
2022-08-10T00:31:06.606Z,101345.72
2022-08-10T00:33:33.687Z,101342.94
2022-08-10T00:36:00.766Z,101339.53
2022-08-10T00:38:27.714Z,101342.13
2022-08-10T00:40:54.675Z,101336.84
2022-08-10T00:43:23.449Z,101338.00
2022-08-10T00:45:59.331Z,101338.59
2022-08-10T00:48:31.601Z,101337.56
2022-08-10T00:51:01.897Z,101345.72
2022-08-10T00:53:29.645Z,101337.31
2022-08-10T00:56:34.897Z,101337.31
2022-08-10T00:58:45.032Z,101344.50
2022-08-10T01:02:10.190Z,101332.84
2022-08-10T01:04:36.777Z,101345.44
2022-08-10T01:07:14.450Z,101333.59
2022-08-10T01:09:59.801Z,101348.88
2022-08-10T01:12:49.737Z,101346.84
2022-08-10T01:15:31.892Z,101345.16
2022-08-10T01:18:14.869Z,101342.28
2022-08-10T01:21:20.799Z,101344.09
2022-08-10T01:24:02.480Z,101356.50
2022-08-10T01:27:07.194Z,101348.28
2022-08-10T01:29:39.447Z,101343.25
2022-08-10T01:32:10.454Z,101331.13
2022-08-10T01:34:52.025Z,101348.91
2022-08-10T01:37:26.387Z,101327.78
2022-08-10T01:39:58.848Z,101338.38
2022-08-10T01:42:29.857Z,101346.34
2022-08-10T01:45:02.344Z,101351.69
2022-08-10T01:47:57.922Z,101338.16
2022-08-10T01:50:59.471Z,101352.53
2022-08-10T01:53:56.242Z,101357.16
2022-08-10T01:56:28.468Z,101359.16
2022-08-10T01:59:04.305Z,101354.91
2022-08-10T02:01:39.411Z,101355.84
2022-08-10T02:04:12.296Z,101358.16
2022-08-10T02:06:46.733Z,101353.09
2022-08-10T02:09:30.414Z,101363.31
2022-08-10T02:12:08.607Z,101352.03
2022-08-10T02:14:44.978Z,101357.22
2022-08-10T02:17:57.528Z,101356.22
2022-08-10T02:20:14.609Z,101354.38
2022-08-10T02:22:45.555Z,101365.03
2022-08-10T02:25:40.902Z,101368.50
2022-08-10T02:28:05.114Z,101360.81
2022-08-10T02:30:34.092Z,101369.22
2022-08-10T02:33:02.114Z,101374.16
2022-08-10T02:35:31.506Z,101367.81
2022-08-10T02:38:59.863Z,101374.00
2022-08-10T02:45:13.777Z,101368.78
2022-08-10T02:45:19.342Z,101373.19
2022-08-10T02:48:00.253Z,101375.72
2022-08-10T02:50:32.429Z,101369.63
2022-08-10T02:53:06.900Z,101372.25
2022-08-10T02:56:05.204Z,101362.50
2022-08-10T02:58:39.621Z,101368.63
2022-08-10T03:01:14.296Z,101375.97
2022-08-10T03:03:53.337Z,101376.72
2022-08-10T03:06:25.618Z,101366.22
2022-08-10T03:08:55.122Z,101375.31
2022-08-10T03:12:16.719Z,101366.59
2022-08-10T03:14:17.092Z,101371.19
2022-08-10T03:16:46.368Z,101370.00
2022-08-10T03:20:34.223Z,101385.16
2022-08-10T03:22:03.862Z,101385.41
2022-08-10T03:24:33.015Z,101380.16
2022-08-10T03:27:01.716Z,101387.44
2022-08-10T03:29:31.347Z,101385.16
2022-08-10T03:32:20.158Z,101371.69
2022-08-10T03:34:47.975Z,101380.91
2022-08-10T03:37:15.017Z,101385.84
2022-08-10T03:39:42.412Z,101375.59
2022-08-10T03:42:15.509Z,101385.06
2022-08-10T03:44:47.369Z,101381.53
2022-08-10T03:47:19.482Z,101384.13
2022-08-10T03:49:49.901Z,101393.28
2022-08-10T03:52:19.309Z,101392.69
2022-08-10T03:54:46.874Z,101394.66
2022-08-10T03:57:14.478Z,101395.47
2022-08-10T03:59:41.696Z,101384.88
2022-08-10T04:02:46.138Z,101385.53
2022-08-10T04:04:56.450Z,101393.78
2022-08-10T04:07:23.788Z,101405.09
2022-08-10T04:09:55.960Z,101398.94
2022-08-10T04:12:24.593Z,101395.22
2022-08-10T04:14:53.146Z,101401.44
2022-08-10T04:18:03.362Z,101400.44
2022-08-10T04:20:53.021Z,101409.19
2022-08-10T04:23:25.365Z,101404.06
2022-08-10T04:25:53.331Z,101409.72
2022-08-10T04:28:20.803Z,101409.13
2022-08-10T04:30:50.359Z,101411.91
2022-08-10T04:33:21.439Z,101411.38
2022-08-10T04:35:49.567Z,101401.31
2022-08-10T04:38:18.545Z,101400.81
2022-08-10T04:40:46.960Z,101406.31
2022-08-10T04:43:14.334Z,101408.16
2022-08-10T04:45:49.042Z,101391.00
2022-08-10T04:48:42.522Z,101423.53
2022-08-10T04:51:18.945Z,101413.34
2022-08-10T04:54:03.792Z,101406.47
2022-08-10T04:56:37.119Z,101406.69
2022-08-10T04:59:06.064Z,101411.00
2022-08-10T05:02:22.567Z,101419.72
2022-08-10T05:04:36.776Z,101419.78
2022-08-10T05:07:11.307Z,101413.88
2022-08-10T05:10:04.878Z,101415.44
2022-08-10T05:12:31.602Z,101411.25
2022-08-10T05:14:58.669Z,101411.66
2022-08-10T05:17:26.410Z,101411.09
2022-08-10T05:20:03.646Z,101415.53
2022-08-10T05:22:38.368Z,101412.91
2022-08-10T05:25:08.899Z,101407.13
2022-08-10T05:27:36.058Z,101414.00
2022-08-10T05:30:04.337Z,101409.88
2022-08-10T05:32:57.717Z,101411.56
2022-08-10T05:35:23.774Z,101418.50
2022-08-10T05:38:09.626Z,101420.53
2022-08-10T05:40:46.922Z,101419.78
2022-08-10T05:43:17.920Z,101421.16
2022-08-10T05:46:18.018Z,101423.53
2022-08-10T05:48:54.507Z,101416.41
2022-08-10T05:51:20.710Z,101430.66
2022-08-10T05:54:02.724Z,101424.50
2022-08-10T05:56:56.982Z,101425.56
2022-08-10T06:00:29.395Z,101424.56
2022-08-10T06:02:41.460Z,101420.88
2022-08-10T06:05:11.626Z,101411.25
2022-08-10T06:07:49.269Z,101417.16
2022-08-10T06:10:30.958Z,101416.63
2022-08-10T06:13:30.138Z,101425.25
2022-08-10T06:16:09.095Z,101424.66
2022-08-10T06:18:39.769Z,101428.72
2022-08-10T06:21:09.592Z,101424.81
2022-08-10T06:23:39.021Z,101426.81
2022-08-10T06:26:11.935Z,101425.13
2022-08-10T06:28:52.926Z,101435.16
2022-08-10T06:31:48.365Z,101434.53
2022-08-10T06:34:25.212Z,101426.19
2022-08-10T06:36:54.414Z,101421.09
2022-08-10T06:39:38.298Z,101427.63
2022-08-10T06:42:17.982Z,101431.88
2022-08-10T06:45:23.482Z,101416.59
2022-08-10T06:48:04.294Z,101415.44
2022-08-10T06:50:55.974Z,101421.91
2022-08-10T06:53:52.975Z,101413.84
2022-08-10T06:56:38.230Z,101408.25
2022-08-10T06:59:34.254Z,101413.69
2022-08-10T07:02:17.067Z,101412.97
2022-08-10T07:04:54.961Z,101417.66
2022-08-10T07:07:27.101Z,101413.25
2022-08-10T07:09:57.341Z,101410.06
2022-08-10T07:12:25.902Z,101414.34
2022-08-10T07:14:55.706Z,101413.34
2022-08-10T07:17:26.930Z,101410.97
2022-08-10T07:19:57.863Z,101410.28
2022-08-10T07:23:51.930Z,101404.41
2022-08-10T07:25:25.345Z,101412.44
2022-08-10T07:28:00.815Z,101403.97
2022-08-10T07:30:33.440Z,101402.41
2022-08-10T07:33:02.640Z,101403.03
2022-08-10T07:35:41.920Z,101404.84
2022-08-10T07:38:38.686Z,101406.78
2022-08-10T07:41:07.948Z,101409.28
2022-08-10T07:43:40.515Z,101407.19
2022-08-10T07:46:14.362Z,101416.03
2022-08-10T07:48:49.160Z,101407.56
2022-08-10T07:51:19.881Z,101403.50
2022-08-10T07:53:52.777Z,101402.84
2022-08-10T07:56:47.467Z,101409.53
2022-08-10T07:59:18.885Z,101404.38
2022-08-10T08:01:51.614Z,101402.25
2022-08-10T08:04:22.600Z,101413.66
2022-08-10T08:06:52.007Z,101406.34
2022-08-10T08:09:21.452Z,101426.31
2022-08-10T08:11:50.166Z,101409.41
2022-08-10T08:14:19.361Z,101413.88
2022-08-10T08:16:51.649Z,101411.97
2022-08-10T08:19:28.509Z,101420.69
2022-08-10T08:24:08.086Z,101406.41
2022-08-10T08:24:57.713Z,101417.19
2022-08-10T08:27:27.322Z,101414.72
2022-08-10T08:29:54.970Z,101415.41
2022-08-10T08:32:27.480Z,101396.59
2022-08-10T08:35:24.397Z,101402.44
2022-08-10T08:38:32.005Z,101405.59
2022-08-10T08:40:47.989Z,101399.16
2022-08-10T08:43:47.661Z,101397.91
2022-08-10T08:46:39.174Z,101402.88
2022-08-10T08:50:04.560Z,101393.09
2022-08-10T08:52:46.874Z,101390.78
2022-08-10T08:55:56.082Z,101393.25
2022-08-10T08:58:29.429Z,101396.78
2022-08-10T09:01:24.163Z,101398.41
2022-08-10T09:04:40.668Z,101400.56
2022-08-10T09:07:39.259Z,101385.53
2022-08-10T09:11:19.087Z,101390.78
2022-08-10T09:14:00.400Z,101372.72
2022-08-10T09:16:53.749Z,101394.03
2022-08-10T09:19:47.804Z,101373.72
2022-08-10T09:22:43.306Z,101379.91
2022-08-10T09:25:37.076Z,101379.59
2022-08-10T09:28:06.858Z,101386.56
2022-08-10T09:36:22.618Z,101382.53
2022-08-10T09:37:39.871Z,101383.44
2022-08-10T09:40:57.940Z,101378.38
2022-08-10T09:43:26.257Z,101375.94
2022-08-10T09:46:11.051Z,101361.94
2022-08-10T09:48:51.416Z,101368.81
2022-08-10T09:51:54.541Z,101361.16
2022-08-10T09:54:38.335Z,101353.50
2022-08-10T09:57:57.084Z,101354.09
2022-08-10T10:00:35.479Z,101360.09
2022-08-10T10:03:27.673Z,101359.13
2022-08-10T10:06:21.742Z,101355.69
2022-08-10T10:09:12.128Z,101356.44
2022-08-10T10:12:14.580Z,101354.25
2022-08-10T10:15:24.736Z,101353.66
2022-08-10T10:18:30.256Z,101345.38
2022-08-10T10:21:54.039Z,101350.91
2022-08-10T10:24:41.930Z,101351.94
2022-08-10T10:27:36.732Z,101343.16
2022-08-10T10:30:11.346Z,101342.28
2022-08-10T10:32:59.466Z,101342.41
2022-08-10T10:35:45.633Z,101345.59
2022-08-10T10:38:15.611Z,101332.13
2022-08-10T10:41:20.186Z,101345.63
2022-08-10T10:44:42.449Z,101338.41
2022-08-10T10:47:46.433Z,101332.94
2022-08-10T10:50:31.329Z,101329.47
2022-08-10T10:53:10.200Z,101339.59
2022-08-10T10:56:13.569Z,101342.13
2022-08-10T10:58:52.198Z,101329.16
2022-08-10T11:01:21.985Z,101332.09
2022-08-10T11:03:58.528Z,101321.66
2022-08-10T11:06:50.986Z,101312.94
2022-08-10T11:10:08.685Z,101306.13
2022-08-10T11:12:55.302Z,101305.56
2022-08-10T11:15:59.642Z,101292.47
2022-08-10T11:18:33.905Z,101299.81
2022-08-10T11:21:26.857Z,101299.28
2022-08-10T11:24:47.893Z,101296.59
2022-08-10T11:27:28.937Z,101292.50
2022-08-10T11:30:09.667Z,101298.22
2022-08-10T11:33:07.067Z,101302.81
2022-08-10T11:35:50.320Z,101304.63
2022-08-10T11:39:04.085Z,101301.06
2022-08-10T11:42:18.550Z,101299.00
2022-08-10T11:45:12.005Z,101294.47
2022-08-10T11:47:54.798Z,101302.72
2022-08-10T11:50:35.051Z,101307.47
2022-08-10T11:53:23.036Z,101289.38
2022-08-10T11:55:57.691Z,101283.81
2022-08-10T11:58:58.487Z,101290.72
2022-08-10T12:01:32.859Z,101274.41
2022-08-10T12:04:11.958Z,101275.78
2022-08-10T12:06:55.357Z,101267.41
2022-08-10T12:10:10.242Z,101267.44
2022-08-10T12:12:13.361Z,101271.25
2022-08-10T12:15:04.052Z,101262.53
2022-08-10T12:17:53.759Z,101266.91
2022-08-10T12:20:31.744Z,101270.09
2022-08-10T12:23:22.365Z,101265.19
2022-08-10T12:25:58.709Z,101268.09
2022-08-10T12:28:50.082Z,101257.06
2022-08-10T12:31:29.826Z,101255.50
2022-08-10T12:34:32.123Z,101251.59
2022-08-10T12:37:27.484Z,101260.44
2022-08-10T12:40:35.131Z,101242.94
2022-08-10T12:44:06.989Z,101257.78
2022-08-10T12:46:41.988Z,101254.66
2022-08-10T12:50:20.059Z,101254.41
2022-08-10T12:52:54.885Z,101253.72
2022-08-10T12:55:23.434Z,101240.34
2022-08-10T12:57:55.390Z,101250.75
2022-08-10T13:00:33.415Z,101242.72
2022-08-10T13:03:03.409Z,101233.34
2022-08-10T13:06:02.550Z,101233.22
2022-08-10T13:08:41.883Z,101232.66
2022-08-10T13:12:35.447Z,101227.31
2022-08-10T13:14:15.151Z,101217.97
2022-08-10T13:16:44.320Z,101221.84
2022-08-10T13:19:14.622Z,101224.00
2022-08-10T13:21:42.980Z,101231.00
2022-08-10T13:24:26.111Z,101227.94
2022-08-10T13:27:25.107Z,101223.16
2022-08-10T13:30:07.016Z,101219.38
2022-08-10T13:32:39.483Z,101211.81
2022-08-10T13:35:14.279Z,101225.53
2022-08-10T13:37:47.029Z,101222.38
2022-08-10T13:40:19.536Z,101215.81
2022-08-10T13:42:49.906Z,101211.56
2022-08-10T13:45:21.956Z,101217.63
2022-08-10T13:47:54.147Z,101201.94
2022-08-10T13:50:33.099Z,101208.50
2022-08-10T13:53:11.627Z,101215.44
2022-08-10T13:55:56.540Z,101211.69
2022-08-10T13:58:42.229Z,101200.97
2022-08-10T14:01:15.829Z,101211.44
2022-08-10T14:03:46.484Z,101211.66
2022-08-10T14:06:16.390Z,101216.22
2022-08-10T14:09:02.076Z,101213.53
2022-08-10T14:11:30.483Z,101202.78
2022-08-10T14:14:13.738Z,101205.34
2022-08-10T14:16:45.887Z,101190.38
2022-08-10T14:19:27.780Z,101204.09
2022-08-10T14:21:56.760Z,101202.78
2022-08-10T14:24:31.426Z,101206.41
2022-08-10T14:27:08.861Z,101200.38
2022-08-10T14:29:49.430Z,101205.53
2022-08-10T14:32:21.610Z,101200.50
2022-08-10T14:36:15.520Z,101190.28
2022-08-10T14:37:50.087Z,101199.25
2022-08-10T14:40:22.058Z,101206.31
2022-08-10T14:43:04.572Z,101211.00
2022-08-10T14:45:37.205Z,101200.38
2022-08-10T14:48:08.732Z,101191.63
2022-08-10T14:50:54.870Z,101192.91
2022-08-10T14:53:27.960Z,101199.78
2022-08-10T14:56:10.909Z,101191.44
2022-08-10T14:58:58.926Z,101201.78
2022-08-10T15:02:00.159Z,101196.75
2022-08-10T15:04:26.528Z,101198.66
2022-08-10T15:07:13.758Z,101192.34
2022-08-10T15:10:01.016Z,101196.06
2022-08-10T15:12:38.901Z,101186.88
2022-08-10T15:15:16.336Z,101194.53
2022-08-10T15:17:52.901Z,101180.03
2022-08-10T15:20:24.701Z,101182.16
2022-08-10T15:23:31.094Z,101177.66
2022-08-10T15:26:11.279Z,101182.84
2022-08-10T15:29:24.197Z,101182.19
2022-08-10T15:31:35.480Z,101175.31
2022-08-10T15:34:28.712Z,101179.81
2022-08-10T15:37:40.484Z,101169.91
2022-08-10T15:40:24.362Z,101178.19
2022-08-10T15:43:20.664Z,101182.16
2022-08-10T15:46:10.678Z,101175.94
2022-08-10T15:48:48.072Z,101168.28
2022-08-10T15:51:54.210Z,101178.09
2022-08-10T15:54:38.192Z,101168.97
2022-08-10T15:57:23.760Z,101164.63
2022-08-10T15:59:58.576Z,101176.41
2022-08-10T16:06:43.829Z,101171.22
2022-08-10T16:10:23.313Z,101174.78
2022-08-10T16:12:36.482Z,101177.50
2022-08-10T16:15:14.654Z,101174.22
2022-08-10T16:18:00.006Z,101166.91
2022-08-10T16:20:53.311Z,101157.25
2022-08-10T16:23:34.341Z,101168.59
2022-08-10T16:26:14.471Z,101161.44
2022-08-10T16:28:50.643Z,101156.59
2022-08-10T16:31:23.136Z,101168.13
2022-08-10T16:33:58.402Z,101159.22
2022-08-10T16:36:41.599Z,101159.19
2022-08-10T16:39:18.158Z,101164.28
2022-08-10T16:42:08.155Z,101164.59
2022-08-10T16:44:50.087Z,101165.91
2022-08-10T16:47:17.731Z,101162.09
2022-08-10T16:49:47.836Z,101150.53
2022-08-10T16:52:17.115Z,101165.00
2022-08-10T16:54:50.145Z,101163.16
2022-08-10T16:57:19.628Z,101166.00
2022-08-10T16:59:48.127Z,101166.97
2022-08-10T17:02:19.440Z,101165.78
2022-08-10T17:04:48.572Z,101163.09
2022-08-10T17:07:18.801Z,101163.16
2022-08-10T17:09:52.900Z,101158.75
2022-08-10T17:12:27.314Z,101173.03
2022-08-10T17:15:09.093Z,101164.09
2022-08-10T17:17:47.651Z,101160.63
2022-08-10T17:20:30.904Z,101157.03
2022-08-10T17:23:04.866Z,101166.13
2022-08-10T17:25:48.600Z,101168.88
2022-08-10T17:28:34.957Z,101165.28
2022-08-10T17:31:49.491Z,101175.06
2022-08-10T17:34:18.172Z,101168.13
2022-08-10T17:36:59.410Z,101164.59
2022-08-10T17:39:41.268Z,101161.97
2022-08-10T17:42:09.233Z,101171.13
2022-08-10T17:44:40.890Z,101169.34
2022-08-10T17:47:11.669Z,101175.72
2022-08-10T17:49:42.233Z,101175.66
2022-08-10T17:52:13.978Z,101179.31
2022-08-10T17:54:44.483Z,101173.91
2022-08-10T17:57:21.393Z,101175.84
2022-08-10T17:59:52.888Z,101174.97
2022-08-10T18:02:27.551Z,101160.63
2022-08-10T18:04:58.831Z,101172.34
2022-08-10T18:07:40.964Z,101188.50
2022-08-10T18:10:11.495Z,101190.28
2022-08-10T18:12:54.573Z,101188.50
2022-08-10T18:15:26.912Z,101194.00
2022-08-10T18:18:00.735Z,101188.63
2022-08-10T18:20:37.227Z,101201.22
2022-08-10T18:23:07.434Z,101187.91
2022-08-10T18:25:39.530Z,101198.69
2022-08-10T18:28:14.962Z,101204.97
2022-08-10T18:30:53.538Z,101202.28
2022-08-10T18:33:31.274Z,101202.31
2022-08-10T18:36:03.639Z,101187.06
2022-08-10T18:38:33.569Z,101207.75
2022-08-10T18:41:07.218Z,101202.31
2022-08-10T18:44:10.414Z,101205.03
2022-08-10T18:46:46.001Z,101187.13
2022-08-10T18:49:39.090Z,101193.47
2022-08-10T18:52:14.697Z,101198.84
2022-08-10T18:54:49.908Z,101209.66
2022-08-10T18:57:50.509Z,101204.31
2022-08-10T19:00:22.799Z,101207.88
2022-08-10T19:03:31.592Z,101206.09
2022-08-10T19:06:44.270Z,101199.91
2022-08-10T19:09:47.142Z,101200.75
2022-08-10T19:12:30.944Z,101214.19
2022-08-10T19:15:18.705Z,101216.94
2022-08-10T19:18:17.213Z,101216.00
2022-08-10T19:20:49.856Z,101210.66
2022-08-10T19:23:29.040Z,101218.72
2022-08-10T19:26:44.838Z,101208.91
2022-08-10T19:30:08.969Z,101219.59
2022-08-10T19:32:54.964Z,101222.31
2022-08-10T19:36:03.052Z,101222.31
2022-08-10T19:39:00.841Z,101225.00
2022-08-10T19:41:44.333Z,101219.63
2022-08-10T19:44:58.455Z,101233.06
2022-08-10T19:47:53.321Z,101229.50
2022-08-10T19:50:37.600Z,101228.56
2022-08-10T19:53:10.001Z,101224.94
2022-08-10T19:55:50.274Z,101225.88
2022-08-10T19:58:36.411Z,101225.81
2022-08-10T20:01:06.977Z,101224.03
2022-08-10T20:03:59.505Z,101230.31
2022-08-10T20:06:50.163Z,101235.63
2022-08-10T20:09:34.728Z,101229.28
2022-08-10T20:12:08.338Z,101224.84
2022-08-10T20:14:56.103Z,101228.41
2022-08-10T20:17:51.732Z,101224.81
2022-08-10T20:20:34.576Z,101229.31
2022-08-10T20:23:30.370Z,101231.00
2022-08-10T20:26:15.295Z,101227.38
2022-08-10T20:29:57.291Z,101226.53
2022-08-10T20:32:24.578Z,101225.63
2022-08-10T20:35:04.617Z,101226.56
2022-08-10T20:38:03.565Z,101222.09
2022-08-10T20:41:14.447Z,101216.69
2022-08-10T20:44:04.355Z,101214.03
2022-08-10T20:47:01.540Z,101219.34
2022-08-10T20:50:03.115Z,101218.47
2022-08-10T20:52:33.738Z,101216.66
2022-08-10T20:55:09.908Z,101221.06
2022-08-10T20:58:04.335Z,101222.00
2022-08-10T21:01:06.182Z,101218.34
2022-08-10T21:04:27.431Z,101215.63
2022-08-10T21:07:22.131Z,101212.06
2022-08-10T21:10:06.428Z,101210.25
2022-08-10T21:13:10.477Z,101209.34
2022-08-10T21:15:55.519Z,101207.53
2022-08-10T21:18:45.011Z,101206.59
2022-08-10T21:21:59.704Z,101213.72
2022-08-10T21:24:40.964Z,101219.03
2022-08-10T21:27:47.122Z,101210.00
2022-08-10T21:30:28.940Z,101211.84
2022-08-10T21:33:37.956Z,101209.94
2022-08-10T21:36:31.991Z,101213.56
2022-08-10T21:39:43.719Z,101210.69
2022-08-10T21:43:03.458Z,101211.66
2022-08-10T21:46:22.987Z,101219.53
2022-08-10T21:49:36.955Z,101214.09
2022-08-10T21:52:33.305Z,101224.78
2022-08-10T21:55:57.268Z,101222.16
2022-08-10T21:59:20.298Z,101222.97
2022-08-10T22:02:28.265Z,101228.22
2022-08-10T22:05:22.026Z,101223.75
2022-08-10T22:08:14.893Z,101231.53
2022-08-10T22:11:08.717Z,101216.28
2022-08-10T22:14:06.284Z,101227.97
2022-08-10T22:17:59.937Z,101213.59
2022-08-10T22:20:53.554Z,101224.31
2022-08-10T22:24:19.906Z,101216.38
2022-08-10T22:27:46.896Z,101213.75
2022-08-10T22:30:23.441Z,101212.63
2022-08-10T22:33:48.188Z,101209.91
2022-08-10T22:37:02.877Z,101208.97
2022-08-10T22:40:13.429Z,101212.53
2022-08-10T22:43:10.924Z,101210.00
2022-08-10T22:46:07.263Z,101209.13
2022-08-10T22:49:00.693Z,101194.75
2022-08-10T22:51:42.587Z,101206.41
2022-08-10T22:54:41.494Z,101202.63
2022-08-10T22:57:34.032Z,101205.38
2022-08-10T23:00:28.687Z,101195.59
2022-08-10T23:03:21.920Z,101198.31
2022-08-10T23:06:07.412Z,101201.69
2022-08-10T23:08:52.075Z,101203.56
2022-08-10T23:11:35.731Z,101198.22
2022-08-10T23:14:12.511Z,101207.06
2022-08-10T23:17:09.342Z,101197.22
2022-08-10T23:19:46.105Z,101200.78
2022-08-10T23:22:16.796Z,101198.09
2022-08-10T23:24:52.884Z,101201.50
2022-08-10T23:27:38.849Z,101200.56
2022-08-10T23:30:18.027Z,101201.44
2022-08-10T23:32:52.066Z,101201.50
2022-08-10T23:36:31.268Z,101198.63
2022-08-10T23:38:16.697Z,101192.31
2022-08-10T23:40:47.261Z,101198.38
2022-08-10T23:43:46.641Z,101188.25
2022-08-10T23:46:17.734Z,101195.44
2022-08-10T23:48:47.033Z,101195.56
2022-08-10T23:51:17.469Z,101199.94
2022-08-10T23:53:47.786Z,101191.06
2022-08-10T23:56:19.343Z,101200.78
2022-08-10T23:58:49.864Z,101199.91
